Time;durP1;ratioP1;P1;durP2;ratioP2;P2;SDS_P1;SDS_P2;PMS_P1;PMS_P2;Temp;Humidity;BMP_temperature;BMP_pressure;BME280_temperature;BME280_humidity;BME280_pressure;Samples;Min_cycle;Max_cycle;Signal;HPM_P1;HPM_P2
2024/03/16 00:01:31;;;;;;;5.67;3.57;;;9.50;99.90;;;;;;4723697;30;20227;-80
2024/03/16 00:03:57;;;;;;;9.33;3.07;;;9.50;99.90;;;;;;4725322;30;20444;-80
2024/03/16 00:06:23;;;;;;;4.63;2.60;;;9.50;99.90;;;;;;4740399;30;20455;-79
2024/03/16 00:08:49;;;;;;;4.10;2.67;;;9.50;99.90;;;;;;4737605;29;20210;-80
2024/03/16 00:11:14;;;;;;;4.13;2.07;;;9.50;99.90;;;;;;4714434;30;20515;-78
2024/03/16 00:13:42;;;;;;;3.13;2.50;;;9.40;99.90;;;;;;4736559;30;20197;-78
2024/03/16 00:16:11;;;;;;;1.87;1.50;;;9.40;99.90;;;;;;4788104;29;20759;-78
2024/03/16 00:18:38;;;;;;;2.03;1.67;;;9.40;99.90;;;;;;4810291;29;20436;-79
2024/03/16 00:21:04;;;;;;;1.63;1.33;;;9.40;99.90;;;;;;4817402;29;20519;-79
2024/03/16 00:23:30;;;;;;;1.73;1.33;;;9.40;99.90;;;;;;4853226;29;20185;-78
2024/03/16 00:25:56;;;;;;;2.17;1.43;;;9.30;99.90;;;;;;4866265;29;20438;-78
2024/03/16 00:28:22;;;;;;;2.47;1.57;;;9.30;99.90;;;;;;4866947;29;20503;-79
2024/03/16 00:30:48;;;;;;;3.17;1.80;;;9.30;99.90;;;;;;4816575;29;20271;-79
2024/03/16 00:33:14;;;;;;;2.77;1.80;;;9.30;99.90;;;;;;4785202;29;20427;-78
2024/03/16 00:35:41;;;;;;;3.73;1.90;;;9.20;99.90;;;;;;4830566;29;20194;-80
2024/03/16 00:38:10;;;;;;;5.70;1.80;;;9.10;99.90;;;;;;4802109;29;20452;-79
2024/03/16 00:40:36;;;;;;;3.33;1.40;;;9.10;99.90;;;;;;4817170;29;20455;-79
2024/03/16 00:43:01;;;;;;;2.80;1.50;;;9.00;99.90;;;;;;4821713;29;20427;-78
2024/03/16 00:45:27;;;;;;;3.33;1.30;;;9.00;99.90;;;;;;4828238;29;20642;-78
2024/03/16 00:47:55;;;;;;;4.73;1.40;;;9.00;99.90;;;;;;4806186;29;20471;-79
2024/03/16 00:50:22;;;;;;;3.50;1.43;;;9.10;99.90;;;;;;4815825;29;20228;-79
2024/03/16 00:52:47;;;;;;;3.60;1.30;;;9.10;99.90;;;;;;4821974;29;20433;-77
2024/03/16 00:55:13;;;;;;;2.33;1.33;;;9.10;99.90;;;;;;4827848;29;20512;-79
2024/03/16 00:57:39;;;;;;;2.03;0.90;;;9.10;99.90;;;;;;4819973;29;20214;-77
2024/03/16 01:00:09;;;;;;;3.80;1.30;;;9.00;99.90;;;;;;4837338;29;20416;-77
2024/03/16 01:02:35;;;;;;;1.73;1.20;;;9.00;99.90;;;;;;4854002;29;20201;-79
2024/03/16 01:05:00;;;;;;;3.80;1.40;;;9.00;99.90;;;;;;4849210;29;20391;-77
2024/03/16 01:07:26;;;;;;;2.80;1.40;;;9.00;99.90;;;;;;4847748;29;20229;-78
2024/03/16 01:09:52;;;;;;;3.40;1.10;;;8.90;99.90;;;;;;4863032;29;20196;-77
2024/03/16 01:12:17;;;;;;;2.07;0.97;;;8.90;99.90;;;;;;4858069;29;20189;-78
2024/03/16 01:14:43;;;;;;;2.30;1.27;;;8.90;99.90;;;;;;4858604;29;20190;-78
2024/03/16 01:17:09;;;;;;;1.43;0.87;;;8.90;99.90;;;;;;4852854;29;20245;-78
2024/03/16 01:19:36;;;;;;;1.00;0.73;;;9.00;99.90;;;;;;4839547;29;20239;-79
2024/03/16 01:22:02;;;;;;;1.63;1.20;;;9.00;99.90;;;;;;4835067;29;20264;-79
2024/03/16 01:24:28;;;;;;;1.40;1.07;;;9.00;99.90;;;;;;4842530;29;20441;-78
2024/03/16 01:26:54;;;;;;;1.90;1.10;;;9.00;99.90;;;;;;4864188;29;20253;-77
2024/03/16 01:29:19;;;;;;;2.60;1.60;;;9.00;99.90;;;;;;4847596;29;20189;-79
2024/03/16 01:31:45;;;;;;;8.23;1.40;;;9.00;99.90;;;;;;4857402;29;20185;-78
2024/03/16 01:34:11;;;;;;;2.57;1.73;;;9.00;99.90;;;;;;4839304;29;20284;-79
2024/03/16 01:36:40;;;;;;;2.97;1.90;;;8.90;99.90;;;;;;4865341;29;20224;-79
2024/03/16 01:39:12;;;;;;;3.00;1.70;;;8.90;99.90;;;;;;4848546;29;20185;-78
2024/03/16 01:41:40;;;;;;;4.30;1.30;;;8.90;99.90;;;;;;4842472;29;20426;-79
2024/03/16 01:44:11;;;;;;;2.50;1.60;;;9.00;99.90;;;;;;4852631;29;20426;-79
2024/03/16 01:46:41;;;;;;;4.10;1.63;;;9.00;99.90;;;;;;4832554;29;20542;-77
2024/03/16 01:49:08;;;;;;;3.33;1.40;;;9.00;99.90;;;;;;4849406;29;20459;-79
2024/03/16 01:51:38;;;;;;;3.30;1.33;;;9.10;99.90;;;;;;4866253;29;20521;-79
2024/03/16 01:54:05;;;;;;;5.63;1.33;;;9.10;99.90;;;;;;4854502;29;20555;-80
2024/03/16 01:56:34;;;;;;;2.80;1.30;;;9.10;99.90;;;;;;4830725;29;20463;-78
2024/03/16 01:58:59;;;;;;;1.63;1.00;;;9.10;99.90;;;;;;4846683;29;20420;-78
2024/03/16 02:01:26;;;;;;;3.90;1.40;;;9.20;99.90;;;;;;4833287;29;20422;-77
2024/03/16 02:03:54;;;;;;;3.63;1.60;;;9.20;99.90;;;;;;4852079;29;20186;-78
2024/03/16 02:06:19;;;;;;;7.73;2.73;;;9.20;99.90;;;;;;4845491;29;20462;-77
2024/03/16 02:08:46;;;;;;;7.20;2.00;;;9.10;99.90;;;;;;4853600;29;20577;-77
2024/03/16 02:11:11;;;;;;;7.60;1.77;;;9.10;99.90;;;;;;4837724;29;20616;-79
2024/03/16 02:13:37;;;;;;;4.67;2.07;;;9.10;99.90;;;;;;4863067;29;20516;-78
2024/03/16 02:16:03;;;;;;;5.83;2.13;;;9.10;99.90;;;;;;4845811;29;20254;-78
2024/03/16 02:18:29;;;;;;;5.47;2.30;;;9.00;99.90;;;;;;4856805;29;20201;-77
2024/03/16 02:20:56;;;;;;;5.70;2.10;;;9.00;99.90;;;;;;4843647;29;20510;-78
2024/03/16 02:23:22;;;;;;;3.53;2.53;;;9.00;99.90;;;;;;4862772;29;20451;-77
2024/03/16 02:25:48;;;;;;;5.70;1.87;;;9.00;99.90;;;;;;4853471;29;20470;-78
2024/03/16 02:28:14;;;;;;;3.50;2.10;;;9.00;99.90;;;;;;4850122;29;20496;-76
2024/03/16 02:30:40;;;;;;;6.77;1.87;;;9.10;99.90;;;;;;4849018;29;20197;-78
2024/03/16 02:33:09;;;;;;;5.80;1.93;;;9.10;99.90;;;;;;4859499;29;20241;-76
2024/03/16 02:35:35;;;;;;;4.77;1.50;;;9.10;99.90;;;;;;4847795;29;20450;-77
2024/03/16 02:38:01;;;;;;;5.10;1.70;;;9.10;99.90;;;;;;4878909;29;20525;-78
2024/03/16 02:40:26;;;;;;;4.47;1.97;;;9.10;99.90;;;;;;4852106;29;20191;-78
2024/03/16 02:42:52;;;;;;;7.20;2.67;;;9.10;99.90;;;;;;4841973;29;20200;-77
2024/03/16 02:45:17;;;;;;;9.03;2.67;;;9.10;99.90;;;;;;4858308;29;20181;-77
2024/03/16 02:47:43;;;;;;;5.37;2.40;;;9.10;99.90;;;;;;4857243;29;20220;-76
2024/03/16 02:50:10;;;;;;;6.70;2.43;;;9.10;99.90;;;;;;4862342;29;20197;-77
2024/03/16 02:52:37;;;;;;;5.20;1.97;;;9.10;99.90;;;;;;4871116;29;20177;-78
2024/03/16 02:55:03;;;;;;;8.23;2.83;;;9.10;99.90;;;;;;4842001;29;20429;-76
2024/03/16 02:57:28;;;;;;;6.50;2.77;;;9.10;99.90;;;;;;4846366;29;20476;-77
2024/03/16 02:59:54;;;;;;;4.30;2.63;;;9.10;99.90;;;;;;4844491;29;20437;-78
2024/03/16 03:02:23;;;;;;;11.47;3.00;;;9.20;99.90;;;;;;4859960;29;20207;-76
2024/03/16 03:04:53;;;;;;;8.83;3.10;;;9.20;99.90;;;;;;4854429;29;20432;-77
2024/03/16 03:07:19;;;;;;;6.47;3.30;;;9.20;99.90;;;;;;4841647;29;20540;-77
2024/03/16 03:09:46;;;;;;;9.93;3.43;;;9.30;99.90;;;;;;4864389;29;20422;-77
2024/03/16 03:12:12;;;;;;;17.20;4.40;;;9.30;99.90;;;;;;4847429;29;20421;-76
2024/03/16 03:14:39;;;;;;;9.60;3.67;;;9.30;99.90;;;;;;4836577;29;20452;-77
2024/03/16 03:17:04;;;;;;;6.37;3.23;;;9.30;99.90;;;;;;4833959;29;20453;-77
2024/03/16 03:19:30;;;;;;;3.80;2.03;;;9.30;99.90;;;;;;4872835;29;20428;-78
2024/03/16 03:21:56;;;;;;;6.47;3.13;;;9.40;99.90;;;;;;4854275;29;20193;-76
2024/03/16 03:24:22;;;;;;;11.37;4.37;;;9.40;99.90;;;;;;4832029;29;20617;-77
2024/03/16 03:26:47;;;;;;;10.00;4.33;;;9.40;99.90;;;;;;4862538;29;20225;-77
2024/03/16 03:29:13;;;;;;;7.83;3.50;;;9.40;99.90;;;;;;4843577;29;20197;-77
2024/03/16 03:31:38;;;;;;;5.77;3.40;;;9.40;99.90;;;;;;4842232;29;20271;-77
2024/03/16 03:34:05;;;;;;;6.17;3.40;;;9.40;99.90;;;;;;4861742;29;20201;-76
2024/03/16 03:36:30;;;;;;;13.30;6.17;;;9.40;99.90;;;;;;4854794;29;20247;-77
2024/03/16 03:38:56;;;;;;;8.07;4.47;;;9.40;99.90;;;;;;4871986;29;20414;-78
2024/03/16 03:41:22;;;;;;;10.77;4.83;;;9.40;99.90;;;;;;4881112;29;20183;-76
2024/03/16 03:43:57;;;;;;;11.00;5.07;;;9.50;99.90;;;;;;4854863;29;20206;-77
2024/03/16 03:46:39;;;;;;;7.00;4.17;;;9.50;99.90;;;;;;4864548;29;20444;-77
2024/03/16 03:49:14;;;;;;;11.93;5.33;;;9.50;99.90;;;;;;4837358;29;20465;-77
2024/03/16 03:51:40;;;;;;;14.77;6.10;;;9.50;99.90;;;;;;4858972;29;20431;-76
2024/03/16 03:54:09;;;;;;;11.10;6.07;;;9.50;99.90;;;;;;4851518;29;20474;-77
2024/03/16 03:56:34;;;;;;;8.40;4.30;;;9.50;99.90;;;;;;4846527;29;20248;-77
2024/03/16 03:59:02;;;;;;;8.07;4.47;;;9.50;99.90;;;;;;4833598;29;20427;-77
2024/03/16 04:01:27;;;;;;;9.73;4.20;;;9.50;99.90;;;;;;4854126;29;20449;-77
2024/03/16 04:03:53;;;;;;;6.90;4.20;;;9.50;99.90;;;;;;4869571;29;20426;-77
2024/03/16 04:06:18;;;;;;;12.73;4.40;;;9.50;99.90;;;;;;4837183;29;20230;-76
2024/03/16 04:08:44;;;;;;;8.80;4.67;;;9.60;99.90;;;;;;4854920;29;20193;-78
2024/03/16 04:11:10;;;;;;;9.23;5.20;;;9.60;99.90;;;;;;4847487;29;20197;-77
2024/03/16 04:13:36;;;;;;;10.73;5.13;;;9.60;99.90;;;;;;4844117;29;20934;-76
2024/03/16 04:16:02;;;;;;;12.30;6.30;;;9.60;99.90;;;;;;4866642;29;20269;-77
2024/03/16 04:18:28;;;;;;;8.67;4.23;;;9.60;99.90;;;;;;4857224;29;20205;-77
2024/03/16 04:20:53;;;;;;;9.53;4.30;;;9.70;99.90;;;;;;4856391;29;20485;-77
2024/03/16 04:23:19;;;;;;;12.20;5.03;;;9.70;99.90;;;;;;4849938;29;20222;-77
2024/03/16 04:25:45;;;;;;;9.77;4.23;;;9.70;99.90;;;;;;4877089;29;20238;-78
2024/03/16 04:28:12;;;;;;;13.63;5.80;;;9.70;99.90;;;;;;4867163;29;20247;-77
2024/03/16 04:30:38;;;;;;;11.37;5.40;;;9.70;99.90;;;;;;4849233;29;20227;-77
2024/03/16 04:33:04;;;;;;;13.87;6.13;;;9.70;99.90;;;;;;4873967;29;20414;-77
2024/03/16 04:35:29;;;;;;;13.90;6.23;;;9.70;99.90;;;;;;4868924;29;20204;-77
2024/03/16 04:37:55;;;;;;;11.53;5.30;;;9.70;99.90;;;;;;4869601;29;20465;-76
2024/03/16 04:40:22;;;;;;;10.77;4.70;;;9.70;99.90;;;;;;4836104;29;20193;-76
2024/03/16 04:42:48;;;;;;;11.90;5.70;;;9.80;99.90;;;;;;4870980;29;20450;-76
2024/03/16 04:45:14;;;;;;;9.97;5.00;;;9.70;99.90;;;;;;4874234;29;20447;-77
2024/03/16 04:47:39;;;;;;;13.43;5.50;;;9.70;99.90;;;;;;4881489;29;20209;-79
2024/03/16 04:50:05;;;;;;;14.43;6.00;;;9.70;99.90;;;;;;4855810;29;20197;-77
2024/03/16 04:52:31;;;;;;;9.00;4.77;;;9.80;99.90;;;;;;4875370;29;20188;-78
2024/03/16 04:54:57;;;;;;;14.00;6.80;;;9.80;99.90;;;;;;4876899;29;20437;-76
2024/03/16 04:57:23;;;;;;;10.00;5.37;;;9.70;99.90;;;;;;4856418;29;20236;-77
2024/03/16 04:59:48;;;;;;;9.37;4.90;;;9.70;99.90;;;;;;4833146;29;20464;-77
2024/03/16 05:02:14;;;;;;;9.10;4.37;;;9.80;99.90;;;;;;4843824;29;20201;-77
2024/03/16 05:04:39;;;;;;;10.37;4.80;;;9.80;99.90;;;;;;4850878;29;20219;-77
2024/03/16 05:07:05;;;;;;;14.60;5.97;;;9.80;99.90;;;;;;4839785;29;20239;-76
2024/03/16 05:09:31;;;;;;;12.10;5.73;;;9.80;99.90;;;;;;4842388;29;20208;-77
2024/03/16 05:11:56;;;;;;;10.83;4.97;;;9.80;99.90;;;;;;4860191;29;20209;-76
2024/03/16 05:14:22;;;;;;;8.93;4.50;;;9.80;99.90;;;;;;4842726;29;20181;-77
2024/03/16 05:16:47;;;;;;;12.40;5.73;;;9.80;99.90;;;;;;4817293;29;20217;-76
2024/03/16 05:19:13;;;;;;;11.30;5.37;;;9.80;99.90;;;;;;4852336;29;20456;-77
2024/03/16 05:21:38;;;;;;;11.97;5.23;;;9.80;99.90;;;;;;4854553;29;20184;-77
2024/03/16 05:24:04;;;;;;;12.57;6.30;;;9.80;99.90;;;;;;4879064;29;20200;-77
2024/03/16 05:26:31;;;;;;;15.10;5.60;;;9.80;99.90;;;;;;4869928;29;20216;-77
2024/03/16 05:28:57;;;;;;;10.57;5.20;;;9.80;99.90;;;;;;4850000;29;20189;-77
2024/03/16 05:31:23;;;;;;;26.00;7.47;;;9.80;99.90;;;;;;4834032;29;20493;-77
2024/03/16 05:33:49;;;;;;;13.50;6.13;;;9.80;99.90;;;;;;4858449;29;20454;-77
2024/03/16 05:36:16;;;;;;;17.90;7.20;;;9.80;99.90;;;;;;4847461;29;20247;-76
2024/03/16 05:38:48;;;;;;;14.97;6.30;;;9.80;99.90;;;;;;4856318;29;20459;-77
2024/03/16 05:41:15;;;;;;;9.20;4.53;;;9.70;99.90;;;;;;4827366;29;20432;-74
2024/03/16 05:43:44;;;;;;;11.13;5.30;;;9.70;99.90;;;;;;4831781;29;20423;-76
2024/03/16 05:46:10;;;;;;;10.90;5.00;;;9.70;99.90;;;;;;4801485;29;20463;-78
2024/03/16 05:48:36;;;;;;;14.90;6.10;;;9.80;99.90;;;;;;4826645;29;20495;-76
2024/03/16 05:51:02;;;;;;;22.57;7.27;;;9.80;99.90;;;;;;4812120;29;20431;-76
2024/03/16 05:53:28;;;;;;;16.83;6.27;;;9.80;99.90;;;;;;4796663;29;20413;-77
2024/03/16 05:55:54;;;;;;;10.50;5.00;;;9.80;99.90;;;;;;4810500;29;20540;-77
2024/03/16 05:58:22;;;;;;;12.83;5.70;;;9.80;99.90;;;;;;4825047;29;20540;-77
2024/03/16 06:00:48;;;;;;;18.60;6.60;;;9.80;99.90;;;;;;4823155;29;20201;-75
2024/03/16 06:03:14;;;;;;;24.20;8.00;;;9.80;99.90;;;;;;4810386;29;20450;-77
2024/03/16 06:05:43;;;;;;;43.17;11.17;;;9.80;99.90;;;;;;4822255;29;20795;-76
2024/03/16 06:08:10;;;;;;;15.70;7.03;;;9.90;99.90;;;;;;4816385;29;20464;-76
2024/03/16 06:10:37;;;;;;;16.80;7.20;;;9.80;99.90;;;;;;4827433;29;20424;-77
2024/03/16 06:13:04;;;;;;;21.67;7.43;;;9.80;99.90;;;;;;4848004;29;20475;-76
2024/03/16 06:15:30;;;;;;;20.60;8.03;;;9.80;99.90;;;;;;4855479;29;20433;-79
2024/03/16 06:17:55;;;;;;;27.57;8.40;;;9.80;99.90;;;;;;4865126;29;20422;-78
2024/03/16 06:20:21;;;;;;;32.63;10.07;;;9.80;99.90;;;;;;4863588;29;20505;-77
2024/03/16 06:22:48;;;;;;;58.27;14.00;;;9.80;99.90;;;;;;4865821;29;20208;-78
2024/03/16 06:25:14;;;;;;;30.07;11.50;;;9.80;99.90;;;;;;4868023;29;20226;-78
2024/03/16 06:27:49;;;;;;;26.77;11.00;;;9.90;99.90;;;;;;4855657;29;20469;-77
2024/03/16 06:30:15;;;;;;;46.17;12.30;;;9.90;99.90;;;;;;4866773;29;20452;-76
2024/03/16 06:35:25;;;;;;;30.80;10.47;;;10.00;99.90;;;;;;4877470;29;20448;-77
2024/03/16 06:37:50;;;;;;;25.93;9.40;;;10.00;99.90;;;;;;4870904;29;20533;-76
2024/03/16 06:40:17;;;;;;;24.63;8.80;;;10.00;99.90;;;;;;4855019;29;20226;-78
2024/03/16 06:42:43;;;;;;;38.43;12.93;;;10.00;99.90;;;;;;4862434;29;20192;-76
2024/03/16 06:45:09;;;;;;;18.60;8.53;;;10.00;99.90;;;;;;4863747;29;20409;-77
2024/03/16 06:47:35;;;;;;;22.50;10.27;;;9.90;99.90;;;;;;4854522;29;20469;-78
2024/03/16 06:50:00;;;;;;;20.93;9.33;;;10.00;99.90;;;;;;4855064;29;20211;-75
2024/03/16 06:52:26;;;;;;;19.50;9.53;;;9.80;99.90;;;;;;4866975;29;20200;-77
2024/03/16 06:54:52;;;;;;;18.33;8.83;;;9.70;99.90;;;;;;4849525;29;20280;-78
2024/03/16 06:57:19;;;;;;;16.20;7.97;;;9.60;99.90;;;;;;4856128;29;20208;-76
2024/03/16 06:59:44;;;;;;;18.13;8.27;;;9.50;99.90;;;;;;4866150;29;20217;-79
2024/03/16 07:02:10;;;;;;;13.13;6.50;;;9.30;99.90;;;;;;4873275;29;20413;-79
2024/03/16 07:04:36;;;;;;;19.23;7.27;;;9.20;99.90;;;;;;4861140;29;20256;-76
2024/03/16 07:07:02;;;;;;;13.17;6.17;;;9.10;99.90;;;;;;4834679;29;20231;-78
2024/03/16 07:09:27;;;;;;;11.67;6.00;;;9.10;99.90;;;;;;4858047;29;20265;-77
2024/03/16 07:11:53;;;;;;;14.03;7.53;;;9.00;99.90;;;;;;4864594;29;20414;-77
2024/03/16 07:14:19;;;;;;;17.70;8.27;;;9.00;99.90;;;;;;4856735;29;20161;-78
2024/03/16 07:16:45;;;;;;;12.40;7.13;;;9.00;99.90;;;;;;4865947;29;20310;-78
2024/03/16 07:19:11;;;;;;;9.53;6.40;;;9.10;99.90;;;;;;4869409;29;20643;-77
2024/03/16 07:21:37;;;;;;;13.00;7.20;;;9.10;99.90;;;;;;4855429;29;20413;-77
2024/03/16 07:24:03;;;;;;;14.27;8.00;;;9.20;99.90;;;;;;4848758;29;20437;-77
2024/03/16 07:26:29;;;;;;;15.07;8.20;;;9.20;99.90;;;;;;4865357;29;20441;-77
2024/03/16 07:28:56;;;;;;;14.73;8.17;;;9.10;99.90;;;;;;4837983;29;20438;-77
2024/03/16 07:31:22;;;;;;;20.60;10.70;;;9.10;99.90;;;;;;4862318;29;20425;-77
2024/03/16 07:33:49;;;;;;;12.53;7.80;;;9.10;99.90;;;;;;4843817;29;20431;-79
2024/03/16 07:36:15;;;;;;;13.10;8.43;;;9.10;99.90;;;;;;4845185;29;20244;-77
2024/03/16 07:38:44;;;;;;;17.20;10.30;;;9.20;99.90;;;;;;4851035;29;20477;-78
2024/03/16 07:41:13;;;;;;;17.70;8.97;;;9.20;99.90;;;;;;4879965;29;20405;-77
2024/03/16 07:43:40;;;;;;;19.30;9.10;;;9.30;99.90;;;;;;4854491;29;20456;-78
2024/03/16 07:46:06;;;;;;;17.90;9.70;;;9.40;99.90;;;;;;4832327;29;20217;-79
2024/03/16 07:48:32;;;;;;;10.60;8.43;;;9.40;99.90;;;;;;4848669;29;20490;-78
2024/03/16 07:50:59;;;;;;;12.30;9.63;;;9.40;99.90;;;;;;4839912;29;20438;-78
2024/03/16 07:53:27;;;;;;;10.77;8.17;;;9.40;99.90;;;;;;4838467;29;20430;-79
2024/03/16 07:55:56;;;;;;;11.03;8.20;;;9.40;99.90;;;;;;4829733;29;20511;-79
2024/03/16 07:58:21;;;;;;;15.13;8.87;;;9.40;99.90;;;;;;4828698;29;20497;-77
2024/03/16 08:00:47;;;;;;;11.50;8.53;;;9.30;99.90;;;;;;4836145;29;20463;-78
2024/03/16 08:03:13;;;;;;;11.10;7.93;;;9.20;99.90;;;;;;4852082;29;20313;-79
2024/03/16 08:05:39;;;;;;;11.10;8.30;;;9.20;99.90;;;;;;4820274;29;20210;-80
2024/03/16 08:08:05;;;;;;;9.90;7.53;;;9.20;99.90;;;;;;4836292;29;20209;-79
2024/03/16 08:10:32;;;;;;;21.57;7.60;;;9.20;99.90;;;;;;4840273;29;20443;-77
2024/03/16 08:12:58;;;;;;;14.40;8.77;;;9.10;99.90;;;;;;4828429;29;20447;-78
2024/03/16 08:15:24;;;;;;;11.23;7.73;;;9.10;99.90;;;;;;4834478;29;20433;-78
2024/03/16 08:17:56;;;;;;;9.30;6.70;;;9.10;99.90;;;;;;4826097;29;20471;-78
2024/03/16 08:20:23;;;;;;;9.30;6.60;;;9.00;99.90;;;;;;4842723;29;20266;-77
2024/03/16 08:22:53;;;;;;;13.60;7.90;;;9.10;99.90;;;;;;4851870;29;20434;-77
2024/03/16 08:25:20;;;;;;;13.73;8.90;;;9.10;99.90;;;;;;4833410;29;20418;-78
2024/03/16 08:27:46;;;;;;;9.83;6.30;;;9.20;99.90;;;;;;5015164;23;20501;-78
2024/03/16 08:30:12;;;;;;;10.40;7.07;;;9.20;99.90;;;;;;4847469;29;20506;-78
2024/03/16 08:32:38;;;;;;;9.30;6.77;;;9.20;99.90;;;;;;4849416;29;20299;-77
2024/03/16 08:35:04;;;;;;;9.53;6.27;;;9.10;99.90;;;;;;4822647;29;20443;-78
2024/03/16 08:37:30;;;;;;;7.87;6.50;;;9.10;99.90;;;;;;4822039;29;20210;-78
2024/03/16 08:39:56;;;;;;;8.10;5.10;;;9.10;99.90;;;;;;4819172;29;20472;-77
2024/03/16 08:42:22;;;;;;;6.13;4.60;;;9.00;99.90;;;;;;4819055;29;20433;-79
2024/03/16 08:44:48;;;;;;;5.40;4.60;;;8.90;99.90;;;;;;4850217;29;20208;-79
2024/03/16 08:47:14;;;;;;;5.60;4.23;;;8.90;99.90;;;;;;4804727;29;20538;-78
2024/03/16 08:49:40;;;;;;;8.43;4.70;;;9.00;99.90;;;;;;4813256;29;20461;-79
2024/03/16 08:52:06;;;;;;;7.20;4.47;;;9.10;99.90;;;;;;4848488;29;20222;-79
2024/03/16 08:54:35;;;;;;;5.97;3.93;;;9.30;99.90;;;;;;4827037;29;20449;-78
2024/03/16 08:57:01;;;;;;;5.93;3.80;;;9.60;99.90;;;;;;4849131;29;20214;-79
2024/03/16 08:59:27;;;;;;;4.93;3.40;;;9.80;99.90;;;;;;4850838;29;20501;-80
2024/03/16 09:01:54;;;;;;;5.47;2.90;;;10.10;99.90;;;;;;4814005;29;20431;-79
2024/03/16 09:04:22;;;;;;;2.70;2.17;;;10.40;99.90;;;;;;4826198;29;20484;-78
2024/03/16 09:06:48;;;;;;;4.03;2.27;;;10.60;99.90;;;;;;4825844;29;20235;-79
2024/03/16 09:09:16;;;;;;;3.80;2.63;;;10.90;99.90;;;;;;4826329;29;20482;-79
2024/03/16 09:11:41;;;;;;;3.30;2.40;;;10.90;99.90;;;;;;4841734;29;20531;-79
2024/03/16 09:14:07;;;;;;;5.33;3.50;;;11.00;99.90;;;;;;4836006;29;20439;-80
2024/03/16 09:16:40;;;;;;;3.80;2.40;;;10.80;99.90;;;;;;4841412;29;20222;-80
2024/03/16 09:19:07;;;;;;;3.13;1.97;;;10.70;99.90;;;;;;4844102;29;20450;-79
2024/03/16 09:21:32;;;;;;;5.93;2.50;;;10.60;99.90;;;;;;4821291;29;20418;-79
2024/03/16 09:23:58;;;;;;;3.80;2.07;;;10.50;99.90;;;;;;4850440;29;20575;-78
2024/03/16 09:26:24;;;;;;;5.10;2.37;;;10.50;99.90;;;;;;4825789;29;20237;-79
2024/03/16 09:28:51;;;;;;;3.10;1.90;;;10.50;99.90;;;;;;4848314;29;20214;-79
2024/03/16 09:31:17;;;;;;;6.33;1.90;;;10.40;99.90;;;;;;4846593;29;20313;-79
2024/03/16 09:33:43;;;;;;;6.63;2.83;;;10.40;99.90;;;;;;4834584;29;20425;-79
2024/03/16 09:36:09;;;;;;;5.33;1.70;;;10.40;99.90;;;;;;4824400;29;20510;-78
2024/03/16 09:38:35;;;;;;;2.70;1.60;;;10.40;99.90;;;;;;4866385;29;20174;-81
2024/03/16 09:41:01;;;;;;;3.30;1.50;;;10.40;99.90;;;;;;4834993;29;20524;-78
2024/03/16 09:43:28;;;;;;;3.90;1.70;;;10.40;99.90;;;;;;4834561;29;20252;-79
2024/03/16 09:45:55;;;;;;;2.93;1.90;;;10.60;99.90;;;;;;4834702;29;20233;-80
2024/03/16 09:48:27;;;;;;;3.97;1.70;;;10.60;99.90;;;;;;4836096;29;20751;-80
2024/03/16 09:50:55;;;;;;;2.60;1.40;;;10.60;99.90;;;;;;4830009;29;20394;-80
2024/03/16 09:53:31;;;;;;;4.70;1.80;;;10.70;99.90;;;;;;4817973;29;20492;-81
2024/03/16 09:56:04;;;;;;;4.33;1.70;;;10.70;99.90;;;;;;4802325;29;20471;-81
2024/03/16 09:58:32;;;;;;;1.97;1.60;;;10.70;99.90;;;;;;4846189;29;20422;-78
2024/03/16 10:01:01;;;;;;;5.60;1.73;;;10.80;99.90;;;;;;4849420;29;20535;-81
2024/03/16 10:03:27;;;;;;;3.27;1.57;;;11.00;99.90;;;;;;4825125;29;20651;-80
2024/03/16 10:05:53;;;;;;;2.30;1.30;;;11.20;99.90;;;;;;4842367;29;20452;-79
2024/03/16 10:08:23;;;;;;;3.83;1.43;;;11.40;99.90;;;;;;4829878;29;20466;-80
2024/03/16 10:10:49;;;;;;;3.87;1.33;;;11.40;99.90;;;;;;4847887;29;20219;-78
2024/03/16 10:13:17;;;;;;;3.10;1.20;;;11.50;99.90;;;;;;4824125;29;20450;-79
2024/03/16 10:15:46;;;;;;;3.00;1.30;;;11.70;99.90;;;;;;4834237;29;20222;-80
2024/03/16 10:18:14;;;;;;;3.80;2.00;;;11.70;99.90;;;;;;4836376;29;20515;-80
2024/03/16 10:20:42;;;;;;;2.23;1.17;;;11.60;99.90;;;;;;4834934;29;20426;-79
2024/03/16 10:23:15;;;;;;;3.80;1.50;;;11.40;99.90;;;;;;4838767;29;20450;-79
2024/03/16 10:25:47;;;;;;;2.30;1.23;;;11.00;99.90;;;;;;4843075;29;20499;-79
2024/03/16 10:28:15;;;;;;;1.97;1.50;;;10.70;99.90;;;;;;4864736;29;20481;-79
2024/03/16 10:30:44;;;;;;;3.30;2.20;;;10.70;99.90;;;;;;4834213;29;20452;-79
2024/03/16 10:33:12;;;;;;;4.07;1.50;;;10.70;99.90;;;;;;4839888;29;20477;-81
2024/03/16 10:35:39;;;;;;;3.93;1.60;;;10.60;99.90;;;;;;4833502;29;20419;-79
2024/03/16 10:38:18;;;;;;;4.30;1.80;;;10.50;99.90;;;;;;4837501;29;20503;-80
2024/03/16 10:40:46;;;;;;;2.27;1.30;;;10.50;99.90;;;;;;4822277;29;20183;-79
2024/03/16 10:43:13;;;;;;;2.47;1.20;;;10.40;99.90;;;;;;4833626;29;20434;-79
2024/03/16 10:45:47;;;;;;;3.33;1.87;;;10.40;99.90;;;;;;4888020;24;20491;-79
2024/03/16 10:48:15;;;;;;;3.53;1.97;;;10.40;99.90;;;;;;4815901;29;20498;-78
2024/03/16 10:50:48;;;;;;;3.73;1.60;;;10.40;99.90;;;;;;4831711;29;20418;-81
2024/03/16 10:53:18;;;;;;;2.77;1.73;;;10.50;99.90;;;;;;4832714;29;20415;-78
2024/03/16 10:55:48;;;;;;;3.30;1.60;;;10.60;99.90;;;;;;5051028;24;20500;-82
2024/03/16 10:58:20;;;;;;;3.90;2.03;;;10.70;99.90;;;;;;4809575;29;20431;-80
2024/03/16 11:01:07;;;;;;;5.37;1.30;;;10.90;99.90;;;;;;4865858;29;20493;-80
2024/03/16 11:03:38;;;;;;;2.40;1.57;;;11.10;99.90;;;;;;4851707;29;20446;-79
2024/03/16 11:06:10;;;;;;;5.90;1.80;;;11.10;99.90;;;;;;4849073;29;20473;-79
2024/03/16 11:08:51;;;;;;;4.23;1.50;;;11.00;99.90;;;;;;4834108;29;20489;-81
2024/03/16 11:11:29;;;;;;;3.73;1.30;;;10.90;99.90;;;;;;4840672;29;20440;-81
2024/03/16 11:14:16;;;;;;;4.17;1.40;;;10.70;99.90;;;;;;4816851;29;20404;-79
2024/03/16 11:16:52;;;;;;;2.77;1.43;;;10.60;99.90;;;;;;4825102;29;20473;-82
2024/03/16 11:19:22;;;;;;;3.13;1.47;;;10.50;99.90;;;;;;4812264;29;20452;-80
2024/03/16 11:21:52;;;;;;;2.40;1.50;;;10.50;99.90;;;;;;4834391;29;20430;-80
2024/03/16 11:24:41;;;;;;;5.00;2.37;;;10.50;99.90;;;;;;4823813;29;20604;-79
2024/03/16 11:27:27;;;;;;;5.23;1.53;;;10.50;99.90;;;;;;4836471;29;20518;-80
2024/03/16 11:30:16;;;;;;;3.10;1.43;;;10.50;99.90;;;;;;4834706;29;20420;-80
2024/03/16 11:32:43;;;;;;;3.50;1.90;;;10.40;99.90;;;;;;4833928;29;20177;-81
2024/03/16 11:35:14;;;;;;;3.43;1.60;;;10.50;99.90;;;;;;4849133;29;20408;-80
2024/03/16 11:37:46;;;;;;;3.40;1.43;;;10.60;99.90;;;;;;4819478;29;20448;-82
2024/03/16 11:40:33;;;;;;;2.67;1.60;;;10.60;99.90;;;;;;4852756;29;20457;-81
2024/03/16 11:43:08;;;;;;;3.93;1.13;;;10.80;99.90;;;;;;4849629;29;20426;-82
2024/03/16 11:45:35;;;;;;;2.53;1.60;;;11.00;99.90;;;;;;4818876;29;20434;-82
2024/03/16 11:48:06;;;;;;;3.77;1.60;;;11.20;99.90;;;;;;4831972;29;20525;-81
2024/03/16 11:50:37;;;;;;;2.43;1.20;;;11.50;99.90;;;;;;4816781;29;20438;-83
2024/03/16 11:53:34;;;;;;;3.97;1.33;;;11.80;99.90;;;;;;5023109;24;20485;-81
2024/03/16 12:02:08;;;;;;;3.50;1.60;;;12.60;99.90;;;;;;4974056;23;20526;-80
2024/03/16 12:04:43;;;;;;;3.30;1.57;;;12.50;99.90;;;;;;4830908;29;20449;-82
2024/03/16 12:07:12;;;;;;;5.93;2.37;;;12.30;99.90;;;;;;5126699;24;20484;-81
2024/03/16 12:09:48;;;;;;;4.60;1.23;;;12.10;99.90;;;;;;4871980;29;20486;-80
2024/03/16 12:12:14;;;;;;;4.37;1.57;;;12.20;97.30;;;;;;4860117;29;20431;-80
2024/03/16 12:14:43;;;;;;;1.10;0.83;;;12.10;95.60;;;;;;4854934;29;20438;-80
2024/03/16 12:17:19;;;;;;;2.10;1.10;;;12.10;93.00;;;;;;4859013;29;20540;-84
2024/03/16 12:19:47;;;;;;;4.10;2.03;;;12.00;92.70;;;;;;4847810;29;20428;-82
2024/03/16 12:22:17;;;;;;;2.10;1.03;;;11.90;92.00;;;;;;4837041;29;20449;-81
2024/03/16 12:24:43;;;;;;;2.90;1.33;;;12.00;91.10;;;;;;4823796;29;20516;-83
2024/03/16 12:27:12;;;;;;;2.90;1.10;;;12.30;89.70;;;;;;4851784;29;20476;-81
2024/03/16 12:30:00;;;;;;;2.47;1.13;;;12.40;87.10;;;;;;4871510;29;20488;-83
2024/03/16 12:32:28;;;;;;;1.67;0.90;;;12.40;84.40;;;;;;4888023;29;20723;-81
2024/03/16 12:35:32;;;;;;;2.83;1.00;;;12.60;82.30;;;;;;4871836;29;20423;-82
2024/03/16 12:38:08;;;;;;;3.43;1.50;;;12.60;81.40;;;;;;4871962;29;20417;-81
2024/03/16 12:44:00;;;;;;;2.40;1.37;;;12.80;78.40;;;;;;5191799;24;20565;-81
2024/03/16 12:46:37;;;;;;;2.60;1.40;;;12.90;77.10;;;;;;4980195;24;20937;-83
2024/03/16 12:49:56;;;;;;;1.90;1.40;;;13.00;74.00;;;;;;4867056;29;20509;-83
2024/03/16 12:52:41;;;;;;;2.97;1.27;;;13.00;72.60;;;;;;4876896;29;20405;-81
2024/03/16 12:55:18;;;;;;;3.03;1.40;;;12.90;72.50;;;;;;4874695;29;20416;-82
2024/03/16 12:58:04;;;;;;;2.20;1.40;;;13.00;72.00;;;;;;4870259;29;20402;-82
2024/03/16 13:00:30;;;;;;;3.53;1.30;;;12.90;72.70;;;;;;4877400;24;20490;-82
2024/03/16 13:03:01;;;;;;;3.40;1.73;;;12.90;70.70;;;;;;4834822;29;20415;-82
2024/03/16 13:05:47;;;;;;;3.90;2.13;;;12.90;70.90;;;;;;4801132;29;20201;-83
2024/03/16 13:08:47;;;;;;;3.97;1.87;;;12.70;71.60;;;;;;4815827;29;20445;-81